KFNL/FNL METAR and TAF weather

Enter ICAO airport designator
Station Type Date Time Source
KFNL METAR 2020/04/02 01:56 UTC NOAA

KFNL 020156Z 33009KT 10SM OVC100 12/02 A2969 RMK AO2 PK WND 06028/0113 PRESRR SLP031 T01220022


Station Type Date Time Source
KFNL Decoded METAR 2020/04/02 01:56 UTC NOAA

Fort Collins/Loveland, Fort Collins-Loveland Municipal Airport, CO, United States (KFNL) 40-27N 105-01W
Apr 01, 2020 - 09:56 PM EDT / 2020.04.02 0156 UTC
Wind: from the NNW (330 degrees) at 10 MPH (9 KT):0
Visibility: 10 mile(s):0
Sky conditions: overcast
Temperature: 54.0 F (12.2 C)
Dew Point: 36.0 F (2.2 C)
Relative Humidity: 50%
Pressure (altimeter): 29.69 in. Hg (1005 hPa)
Pressure tendency: rising rapidly
ob: KFNL 020156Z 33009KT 10SM OVC100 12/02 A2969 RMK AO2 PK WND 06028/0113 PRESRR SLP031 T01220022
cycle: 2

Station Type Date Time Source
KFNL TAF UTC NOAA

Error!

Example: see airport list